Sti Virtus — V7AY4 — position and weather

sailwx.info

Track history (hours):
 
Tides and Currents Weather Stations Pressure Air Temp Water Temp Dewpoint Dewpoint Depression Visibility Wind Speed Wind Dir Waves Ship Positions

Sti Virtus

Last reported at 2017-Sep-14 17:29 UTC. Time now 2017-Sep-24 14:10 UTC.
Position N 33°02' W 127°36'.
Warning: this ship's position is 9 days out of date.

Length 183 m; draft 8 m.

Type: Tanker. MMSI: 538005171.

Date/timePositionNaut miles runAvg speedWind from/ knotsBaromVisibWave heightAir tempDewpointWater temp
2017-Sep-14 17:29N 33°02' W 127°36'511.1
2017-Sep-14 17:00N 32°59' W 127°30'611.2
2017-Sep-14 16:30N 32°57' W 127°24'811.1
2017-Sep-14 15:44N 32°53' W 127°15'811.0
2017-Sep-14 15:01N 32°49' W 127°07'111.1
2017-Sep-14 14:57N 32°49' W 127°06'610.9
2017-Sep-14 14:26N 32°46' W 127°00'9611.3
2017-Sep-14 05:52N 32°01' W 125°19'511.6
2017-Sep-14 05:28N 31°59' W 125°14'27910.8
2017-Sep-13 03:40N 30°46' W 119°59'1611.4
2017-Sep-13 02:17N 30°49' W 119°41'711.2
2017-Sep-13 01:38N 30°51' W 119°33'511.1
2017-Sep-13 01:13N 30°52' W 119°28'811.3
2017-Sep-13 00:32N 30°54' W 119°19'411.3
2017-Sep-13 00:08N 30°55' W 119°14'211.6
2017-Sep-12 23:58N 30°55' W 119°12'711.4
2017-Sep-12 23:23N 30°56' W 119°04'411.3
2017-Sep-12 23:00N 30°57' W 118°59'611.7
2017-Sep-12 22:30N 30°59' W 118°53'611.8
2017-Sep-12 22:00N 31°00' W 118°46'611.6
2017-Sep-12 21:30N 31°02' W 118°39'611.7
2017-Sep-12 20:59N 31°03' W 118°33'611.8
2017-Sep-12 20:30N 31°05' W 118°26'611.3
2017-Sep-12 19:57N 31°09' W 118°21'511.4
2017-Sep-12 19:30N 31°13' W 118°18'611.3
2017-Sep-12 19:00N 31°18' W 118°14'611.3
2017-Sep-12 18:30N 31°22' W 118°10'611.6
2017-Sep-12 18:00N 31°27' W 118°05'611.7
2017-Sep-12 17:30N 31°31' W 118°01'611.8
2017-Sep-12 17:00N 31°36' W 117°57'611.6
2017-Sep-12 16:30N 31°41' W 117°53'811.5
2017-Sep-12 15:51N 31°46' W 117°47'411.6
2017-Sep-12 15:30N 31°49' W 117°44'611.6
2017-Sep-12 15:00N 31°54' W 117°39'611.8
2017-Sep-12 14:30N 31°58' W 117°35'611.8
2017-Sep-12 14:00N 32°03' W 117°31'612.5
2017-Sep-12 13:30N 32°08' W 117°26'3 6.7
2017-Sep-12 13:00N 32°10' W 117°23'0 0.9
2017-Sep-12 12:30N 32°11' W 117°23'1 1.2
2017-Sep-12 12:00N 32°11' W 117°23'2 3.3
2017-Sep-12 11:30N 32°13' W 117°22'510.3
2017-Sep-12 11:00N 32°16' W 117°17'611.7
2017-Sep-12 10:29N 32°18' W 117°10'510.0
2017-Sep-12 10:00N 32°20' W 117°05'0 0.0
2017-Sep-11 14:35N 32°21' W 117°06'0 0.2
2017-Sep-11 14:30N 32°21' W 117°06'0 0.9
2017-Sep-11 14:00N 32°20' W 117°06'2 3.2
2017-Sep-11 13:25N 32°21' W 117°08'0 0.2
2017-Sep-11 13:00N 32°21' W 117°08'0 0.2
2017-Sep-11 12:30N 32°21' W 117°08'5 9.1
2017-Sep-11 12:00N 32°19' W 117°13'612.6
2017-Sep-11 11:30N 32°17' W 117°20'611.8
2017-Sep-11 11:00N 32°11' W 117°22'612.3
2017-Sep-11 10:30N 32°05' W 117°24'612.4
2017-Sep-11 10:00N 31°59' W 117°24'713.2
2017-Sep-11 09:30N 31°53' W 117°21'713.0
2017-Sep-11 09:00N 31°47' W 117°19'612.4
2017-Sep-11 08:30N 31°41' W 117°17'612.1
2017-Sep-11 08:00N 31°35' W 117°16'612.0
2017-Sep-11 07:30N 31°29' W 117°14'612.2
2017-Sep-11 06:59N 31°23' W 117°12'812.4
2017-Sep-11 06:21N 31°15' W 117°10'412.3
2017-Sep-11 06:00N 31°11' W 117°09'612.1
2017-Sep-11 05:28N 31°05' W 117°06'612.1
2017-Sep-11 04:56N 30°59' W 117°04'512.0
2017-Sep-11 04:30N 30°54' W 117°02'  
Track history (hours):
 
Tides and Currents Weather Stations Pressure Air Temp Water Temp Dewpoint Dewpoint Depression Visibility Wind Speed Wind Dir Waves Ship Positions

Sti Virtus

Last reported at 2017-Sep-14 17:29 UTC. Time now 2017-Sep-24 14:10 UTC.
Position N 33°02' W 127°36'.
Warning: this ship's position is 9 days out of date.

Length 183 m; draft 8 m.

Type: Tanker. MMSI: 538005171.

Date/timePositionNaut miles runAvg speedWind from/ knotsBaromVisibWave heightAir tempDewpointWater temp
2017-Sep-14 17:29N 33°02' W 127°36'511.1
2017-Sep-14 17:00N 32°59' W 127°30'611.2
2017-Sep-14 16:30N 32°57' W 127°24'811.1
2017-Sep-14 15:44N 32°53' W 127°15'811.0
2017-Sep-14 15:01N 32°49' W 127°07'111.1
2017-Sep-14 14:57N 32°49' W 127°06'610.9
2017-Sep-14 14:26N 32°46' W 127°00'9611.3
2017-Sep-14 05:52N 32°01' W 125°19'511.6
2017-Sep-14 05:28N 31°59' W 125°14'27910.8
2017-Sep-13 03:40N 30°46' W 119°59'1611.4
2017-Sep-13 02:17N 30°49' W 119°41'711.2
2017-Sep-13 01:38N 30°51' W 119°33'511.1
2017-Sep-13 01:13N 30°52' W 119°28'811.3
2017-Sep-13 00:32N 30°54' W 119°19'411.3
2017-Sep-13 00:08N 30°55' W 119°14'211.6
2017-Sep-12 23:58N 30°55' W 119°12'711.4
2017-Sep-12 23:23N 30°56' W 119°04'411.3
2017-Sep-12 23:00N 30°57' W 118°59'611.7
2017-Sep-12 22:30N 30°59' W 118°53'611.8
2017-Sep-12 22:00N 31°00' W 118°46'611.6
2017-Sep-12 21:30N 31°02' W 118°39'611.7
2017-Sep-12 20:59N 31°03' W 118°33'611.8
2017-Sep-12 20:30N 31°05' W 118°26'611.3
2017-Sep-12 19:57N 31°09' W 118°21'511.4
2017-Sep-12 19:30N 31°13' W 118°18'611.3
2017-Sep-12 19:00N 31°18' W 118°14'611.3
2017-Sep-12 18:30N 31°22' W 118°10'611.6
2017-Sep-12 18:00N 31°27' W 118°05'611.7
2017-Sep-12 17:30N 31°31' W 118°01'611.8
2017-Sep-12 17:00N 31°36' W 117°57'611.6
2017-Sep-12 16:30N 31°41' W 117°53'811.5
2017-Sep-12 15:51N 31°46' W 117°47'411.6
2017-Sep-12 15:30N 31°49' W 117°44'611.6
2017-Sep-12 15:00N 31°54' W 117°39'611.8
2017-Sep-12 14:30N 31°58' W 117°35'611.8
2017-Sep-12 14:00N 32°03' W 117°31'612.5
2017-Sep-12 13:30N 32°08' W 117°26'3 6.7
2017-Sep-12 13:00N 32°10' W 117°23'0 0.9
2017-Sep-12 12:30N 32°11' W 117°23'1 1.2
2017-Sep-12 12:00N 32°11' W 117°23'2 3.3
2017-Sep-12 11:30N 32°13' W 117°22'510.3
2017-Sep-12 11:00N 32°16' W 117°17'611.7
2017-Sep-12 10:29N 32°18' W 117°10'510.0
2017-Sep-12 10:00N 32°20' W 117°05'0 0.0
2017-Sep-11 14:35N 32°21' W 117°06'0 0.2
2017-Sep-11 14:30N 32°21' W 117°06'0 0.9
2017-Sep-11 14:00N 32°20' W 117°06'2 3.2
2017-Sep-11 13:25N 32°21' W 117°08'0 0.2
2017-Sep-11 13:00N 32°21' W 117°08'0 0.2
2017-Sep-11 12:30N 32°21' W 117°08'5 9.1
2017-Sep-11 12:00N 32°19' W 117°13'612.6
2017-Sep-11 11:30N 32°17' W 117°20'611.8
2017-Sep-11 11:00N 32°11' W 117°22'612.3
2017-Sep-11 10:30N 32°05' W 117°24'612.4
2017-Sep-11 10:00N 31°59' W 117°24'713.2
2017-Sep-11 09:30N 31°53' W 117°21'713.0
2017-Sep-11 09:00N 31°47' W 117°19'612.4
2017-Sep-11 08:30N 31°41' W 117°17'612.1
2017-Sep-11 08:00N 31°35' W 117°16'612.0
2017-Sep-11 07:30N 31°29' W 117°14'612.2
2017-Sep-11 06:59N 31°23' W 117°12'812.4
2017-Sep-11 06:21N 31°15' W 117°10'412.3
2017-Sep-11 06:00N 31°11' W 117°09'612.1
2017-Sep-11 05:28N 31°05' W 117°06'612.1
2017-Sep-11 04:56N 30°59' W 117°04'512.0
2017-Sep-11 04:30N 30°54' W 117°02'  

Dump ship's entire track history